sensor_id;sensor_type;location;lat;lon;timestamp;P1;durP1;ratioP1;P2;durP2;ratioP2
67516;SDS011;68821;59.134;37.894;2024-03-25T00:00:13;2.50;;;1.05;;
67516;SDS011;68821;59.134;37.894;2024-03-25T00:02:41;2.38;;;0.85;;
67516;SDS011;68821;59.134;37.894;2024-03-25T00:05:08;3.03;;;0.82;;
67516;SDS011;68821;59.134;37.894;2024-03-25T00:07:37;2.58;;;0.90;;
67516;SDS011;68821;59.134;37.894;2024-03-25T00:10:04;2.53;;;0.93;;
67516;SDS011;68821;59.134;37.894;2024-03-25T00:12:34;2.97;;;1.08;;
67516;SDS011;68821;59.134;37.894;2024-03-25T00:15:01;2.28;;;1.00;;
67516;SDS011;68821;59.134;37.894;2024-03-25T00:17:28;2.70;;;1.13;;
67516;SDS011;68821;59.134;37.894;2024-03-25T00:19:54;4.80;;;1.23;;
67516;SDS011;68821;59.134;37.894;2024-03-25T00:22:21;4.00;;;1.08;;
67516;SDS011;68821;59.134;37.894;2024-03-25T00:24:51;3.97;;;1.10;;
67516;SDS011;68821;59.134;37.894;2024-03-25T00:27:17;3.33;;;1.20;;
67516;SDS011;68821;59.134;37.894;2024-03-25T00:29:44;4.18;;;1.20;;
67516;SDS011;68821;59.134;37.894;2024-03-25T00:32:11;3.67;;;1.48;;
67516;SDS011;68821;59.134;37.894;2024-03-25T00:34:37;3.20;;;1.15;;
67516;SDS011;68821;59.134;37.894;2024-03-25T00:37:03;3.35;;;1.58;;
67516;SDS011;68821;59.134;37.894;2024-03-25T00:39:30;2.80;;;1.10;;
67516;SDS011;68821;59.134;37.894;2024-03-25T00:42:00;3.80;;;1.30;;
67516;SDS011;68821;59.134;37.894;2024-03-25T00:44:27;3.80;;;1.50;;
67516;SDS011;68821;59.134;37.894;2024-03-25T00:46:53;8.07;;;2.05;;
67516;SDS011;68821;59.134;37.894;2024-03-25T00:49:19;7.15;;;2.30;;
67516;SDS011;68821;59.134;37.894;2024-03-25T00:51:47;7.45;;;2.35;;
67516;SDS011;68821;59.134;37.894;2024-03-25T00:54:13;13.23;;;2.55;;
67516;SDS011;68821;59.134;37.894;2024-03-25T00:56:39;14.07;;;2.70;;
67516;SDS011;68821;59.134;37.894;2024-03-25T00:59:06;17.77;;;2.70;;
67516;SDS011;68821;59.134;37.894;2024-03-25T01:01:32;16.77;;;2.90;;
67516;SDS011;68821;59.134;37.894;2024-03-25T01:04:01;14.73;;;3.00;;
67516;SDS011;68821;59.134;37.894;2024-03-25T01:06:28;11.85;;;3.00;;
67516;SDS011;68821;59.134;37.894;2024-03-25T01:08:55;7.68;;;2.55;;
67516;SDS011;68821;59.134;37.894;2024-03-25T01:11:21;7.00;;;2.97;;
67516;SDS011;68821;59.134;37.894;2024-03-25T01:13:48;5.13;;;2.03;;
67516;SDS011;68821;59.134;37.894;2024-03-25T01:16:15;9.68;;;2.97;;
67516;SDS011;68821;59.134;37.894;2024-03-25T01:18:41;8.40;;;2.50;;
67516;SDS011;68821;59.134;37.894;2024-03-25T01:21:07;5.03;;;2.05;;
67516;SDS011;68821;59.134;37.894;2024-03-25T01:23:33;5.35;;;2.28;;
67516;SDS011;68821;59.134;37.894;2024-03-25T01:26:00;5.85;;;1.75;;
67516;SDS011;68821;59.134;37.894;2024-03-25T01:28:26;5.32;;;2.28;;
67516;SDS011;68821;59.134;37.894;2024-03-25T01:30:53;5.38;;;2.15;;
67516;SDS011;68821;59.134;37.894;2024-03-25T01:33:19;5.75;;;2.40;;
67516;SDS011;68821;59.134;37.894;2024-03-25T01:35:45;5.78;;;2.03;;
67516;SDS011;68821;59.134;37.894;2024-03-25T01:38:12;5.55;;;2.47;;
67516;SDS011;68821;59.134;37.894;2024-03-25T01:40:38;6.80;;;2.30;;
67516;SDS011;68821;59.134;37.894;2024-03-25T01:43:05;5.80;;;2.55;;
67516;SDS011;68821;59.134;37.894;2024-03-25T01:45:32;4.97;;;2.08;;
67516;SDS011;68821;59.134;37.894;2024-03-25T01:48:10;5.20;;;1.70;;
67516;SDS011;68821;59.134;37.894;2024-03-25T01:50:42;4.85;;;2.03;;
67516;SDS011;68821;59.134;37.894;2024-03-25T01:53:11;5.03;;;1.90;;
67516;SDS011;68821;59.134;37.894;2024-03-25T01:55:39;5.85;;;2.20;;
67516;SDS011;68821;59.134;37.894;2024-03-25T01:58:06;4.03;;;1.60;;
67516;SDS011;68821;59.134;37.894;2024-03-25T02:00:32;4.57;;;1.90;;
67516;SDS011;68821;59.134;37.894;2024-03-25T02:02:59;4.38;;;1.60;;
67516;SDS011;68821;59.134;37.894;2024-03-25T02:05:26;5.32;;;2.17;;
67516;SDS011;68821;59.134;37.894;2024-03-25T02:07:52;4.70;;;1.65;;
67516;SDS011;68821;59.134;37.894;2024-03-25T02:10:19;3.95;;;1.70;;
67516;SDS011;68821;59.134;37.894;2024-03-25T02:15:13;3.20;;;1.17;;
67516;SDS011;68821;59.134;37.894;2024-03-25T02:17:39;3.58;;;1.33;;
67516;SDS011;68821;59.134;37.894;2024-03-25T02:20:07;2.60;;;1.10;;
67516;SDS011;68821;59.134;37.894;2024-03-25T02:22:34;3.10;;;1.05;;
67516;SDS011;68821;59.134;37.894;2024-03-25T02:25:07;2.35;;;0.80;;
67516;SDS011;68821;59.134;37.894;2024-03-25T02:27:35;2.17;;;0.88;;
67516;SDS011;68821;59.134;37.894;2024-03-25T02:30:05;1.48;;;0.60;;
67516;SDS011;68821;59.134;37.894;2024-03-25T02:32:33;2.63;;;0.93;;
67516;SDS011;68821;59.134;37.894;2024-03-25T02:35:00;1.38;;;0.68;;
67516;SDS011;68821;59.134;37.894;2024-03-25T02:37:29;1.13;;;0.70;;
67516;SDS011;68821;59.134;37.894;2024-03-25T02:39:58;0.57;;;0.40;;
67516;SDS011;68821;59.134;37.894;2024-03-25T02:42:25;1.20;;;0.50;;
67516;SDS011;68821;59.134;37.894;2024-03-25T02:44:53;1.55;;;0.57;;
67516;SDS011;68821;59.134;37.894;2024-03-25T02:47:22;0.85;;;0.40;;
67516;SDS011;68821;59.134;37.894;2024-03-25T02:49:48;0.10;;;0.10;;
67516;SDS011;68821;59.134;37.894;2024-03-25T02:52:15;0.47;;;0.22;;
67516;SDS011;68821;59.134;37.894;2024-03-25T02:54:42;0.40;;;0.13;;
67516;SDS011;68821;59.134;37.894;2024-03-25T02:57:08;1.23;;;0.40;;
67516;SDS011;68821;59.134;37.894;2024-03-25T02:59:34;0.57;;;0.30;;
67516;SDS011;68821;59.134;37.894;2024-03-25T03:02:00;0.77;;;0.40;;
67516;SDS011;68821;59.134;37.894;2024-03-25T03:04:26;0.88;;;0.50;;
67516;SDS011;68821;59.134;37.894;2024-03-25T03:06:53;0.57;;;0.40;;
67516;SDS011;68821;59.134;37.894;2024-03-25T03:09:19;2.85;;;0.60;;
67516;SDS011;68821;59.134;37.894;2024-03-25T03:11:45;1.50;;;0.60;;
67516;SDS011;68821;59.134;37.894;2024-03-25T03:14:11;1.98;;;0.50;;
67516;SDS011;68821;59.134;37.894;2024-03-25T03:16:38;1.27;;;0.60;;
67516;SDS011;68821;59.134;37.894;2024-03-25T03:19:04;1.42;;;0.47;;
67516;SDS011;68821;59.134;37.894;2024-03-25T03:21:30;1.42;;;0.60;;
67516;SDS011;68821;59.134;37.894;2024-03-25T03:23:57;0.95;;;0.35;;
67516;SDS011;68821;59.134;37.894;2024-03-25T03:26:23;0.73;;;0.17;;
67516;SDS011;68821;59.134;37.894;2024-03-25T03:28:56;1.27;;;0.47;;
67516;SDS011;68821;59.134;37.894;2024-03-25T03:31:23;0.65;;;0.28;;
67516;SDS011;68821;59.134;37.894;2024-03-25T03:33:49;0.30;;;0.20;;
67516;SDS011;68821;59.134;37.894;2024-03-25T03:36:17;2.08;;;0.47;;
67516;SDS011;68821;59.134;37.894;2024-03-25T03:38:44;0.47;;;0.30;;
67516;SDS011;68821;59.134;37.894;2024-03-25T03:41:11;1.33;;;0.43;;
67516;SDS011;68821;59.134;37.894;2024-03-25T03:43:37;1.08;;;0.43;;
67516;SDS011;68821;59.134;37.894;2024-03-25T03:46:04;0.95;;;0.47;;
67516;SDS011;68821;59.134;37.894;2024-03-25T03:48:30;0.98;;;0.50;;
67516;SDS011;68821;59.134;37.894;2024-03-25T03:50:56;0.75;;;0.50;;
67516;SDS011;68821;59.134;37.894;2024-03-25T03:53:23;1.55;;;0.60;;
67516;SDS011;68821;59.134;37.894;2024-03-25T03:55:55;0.98;;;0.40;;
67516;SDS011;68821;59.134;37.894;2024-03-25T03:58:23;0.47;;;0.30;;
67516;SDS011;68821;59.134;37.894;2024-03-25T04:00:50;1.42;;;0.50;;
67516;SDS011;68821;59.134;37.894;2024-03-25T04:03:17;0.95;;;0.47;;
67516;SDS011;68821;59.134;37.894;2024-03-25T04:05:44;1.38;;;0.73;;
67516;SDS011;68821;59.134;37.894;2024-03-25T04:08:10;1.20;;;0.60;;
67516;SDS011;68821;59.134;37.894;2024-03-25T04:10:37;0.85;;;0.47;;
67516;SDS011;68821;59.134;37.894;2024-03-25T04:13:04;1.35;;;0.50;;
67516;SDS011;68821;59.134;37.894;2024-03-25T04:15:37;1.38;;;0.50;;
67516;SDS011;68821;59.134;37.894;2024-03-25T04:18:04;0.77;;;0.38;;
67516;SDS011;68821;59.134;37.894;2024-03-25T04:20:37;1.17;;;0.47;;
67516;SDS011;68821;59.134;37.894;2024-03-25T04:23:07;1.48;;;0.52;;
67516;SDS011;68821;59.134;37.894;2024-03-25T04:25:36;1.38;;;0.60;;
67516;SDS011;68821;59.134;37.894;2024-03-25T04:28:05;1.10;;;0.50;;
67516;SDS011;68821;59.134;37.894;2024-03-25T04:30:32;2.92;;;0.88;;
67516;SDS011;68821;59.134;37.894;2024-03-25T04:32:59;1.65;;;0.55;;
67516;SDS011;68821;59.134;37.894;2024-03-25T04:35:26;2.55;;;0.73;;
67516;SDS011;68821;59.134;37.894;2024-03-25T04:37:53;2.65;;;0.90;;
67516;SDS011;68821;59.134;37.894;2024-03-25T04:40:21;1.00;;;0.60;;
67516;SDS011;68821;59.134;37.894;2024-03-25T04:42:48;1.52;;;0.68;;
67516;SDS011;68821;59.134;37.894;2024-03-25T04:45:14;1.48;;;0.70;;
67516;SDS011;68821;59.134;37.894;2024-03-25T04:47:41;1.42;;;0.68;;
67516;SDS011;68821;59.134;37.894;2024-03-25T04:50:07;2.08;;;0.80;;
67516;SDS011;68821;59.134;37.894;2024-03-25T04:52:34;0.82;;;0.38;;
67516;SDS011;68821;59.134;37.894;2024-03-25T04:55:01;1.52;;;0.43;;
67516;SDS011;68821;59.134;37.894;2024-03-25T04:57:27;1.65;;;0.70;;
67516;SDS011;68821;59.134;37.894;2024-03-25T04:59:53;1.98;;;0.70;;
67516;SDS011;68821;59.134;37.894;2024-03-25T05:02:20;2.35;;;0.60;;
67516;SDS011;68821;59.134;37.894;2024-03-25T05:04:46;2.15;;;0.77;;
67516;SDS011;68821;59.134;37.894;2024-03-25T05:07:12;1.75;;;0.73;;
67516;SDS011;68821;59.134;37.894;2024-03-25T05:09:39;2.47;;;0.93;;
67516;SDS011;68821;59.134;37.894;2024-03-25T05:12:05;3.83;;;1.27;;
67516;SDS011;68821;59.134;37.894;2024-03-25T05:14:32;5.22;;;1.98;;
67516;SDS011;68821;59.134;37.894;2024-03-25T05:16:58;3.70;;;1.33;;
67516;SDS011;68821;59.134;37.894;2024-03-25T05:19:24;3.58;;;1.35;;
67516;SDS011;68821;59.134;37.894;2024-03-25T05:21:50;2.40;;;1.02;;
67516;SDS011;68821;59.134;37.894;2024-03-25T05:24:18;2.75;;;1.05;;
67516;SDS011;68821;59.134;37.894;2024-03-25T05:26:44;1.90;;;0.80;;
67516;SDS011;68821;59.134;37.894;2024-03-25T05:29:10;2.13;;;0.77;;
67516;SDS011;68821;59.134;37.894;2024-03-25T05:31:36;3.08;;;1.38;;
67516;SDS011;68821;59.134;37.894;2024-03-25T05:34:04;3.03;;;1.13;;
67516;SDS011;68821;59.134;37.894;2024-03-25T05:36:34;2.63;;;1.20;;
67516;SDS011;68821;59.134;37.894;2024-03-25T05:39:00;5.22;;;1.65;;
67516;SDS011;68821;59.134;37.894;2024-03-25T05:41:26;3.88;;;1.60;;
67516;SDS011;68821;59.134;37.894;2024-03-25T05:43:52;4.10;;;1.42;;
67516;SDS011;68821;59.134;37.894;2024-03-25T05:46:19;2.42;;;0.98;;
67516;SDS011;68821;59.134;37.894;2024-03-25T05:48:45;2.20;;;0.70;;
67516;SDS011;68821;59.134;37.894;2024-03-25T05:51:11;3.42;;;1.13;;
67516;SDS011;68821;59.134;37.894;2024-03-25T05:53:38;5.47;;;1.25;;
67516;SDS011;68821;59.134;37.894;2024-03-25T05:56:04;5.60;;;1.33;;
67516;SDS011;68821;59.134;37.894;2024-03-25T05:58:30;6.05;;;1.50;;
67516;SDS011;68821;59.134;37.894;2024-03-25T06:00:57;6.68;;;1.45;;
67516;SDS011;68821;59.134;37.894;2024-03-25T06:03:23;2.67;;;1.10;;
67516;SDS011;68821;59.134;37.894;2024-03-25T06:05:49;2.85;;;1.00;;
67516;SDS011;68821;59.134;37.894;2024-03-25T06:08:15;4.18;;;1.23;;
67516;SDS011;68821;59.134;37.894;2024-03-25T06:10:46;3.53;;;1.33;;
67516;SDS011;68821;59.134;37.894;2024-03-25T06:13:12;12.02;;;2.70;;
67516;SDS011;68821;59.134;37.894;2024-03-25T06:15:39;8.13;;;2.50;;
67516;SDS011;68821;59.134;37.894;2024-03-25T06:18:05;6.05;;;1.48;;
67516;SDS011;68821;59.134;37.894;2024-03-25T06:20:32;4.13;;;2.00;;
67516;SDS011;68821;59.134;37.894;2024-03-25T06:22:58;5.07;;;1.55;;
67516;SDS011;68821;59.134;37.894;2024-03-25T06:25:24;3.40;;;1.10;;
67516;SDS011;68821;59.134;37.894;2024-03-25T06:27:51;9.27;;;1.13;;
67516;SDS011;68821;59.134;37.894;2024-03-25T06:30:17;5.97;;;1.00;;
67516;SDS011;68821;59.134;37.894;2024-03-25T06:33:01;4.90;;;1.40;;
67516;SDS011;68821;59.134;37.894;2024-03-25T06:35:46;6.82;;;1.42;;
67516;SDS011;68821;59.134;37.894;2024-03-25T06:38:12;3.78;;;1.00;;
67516;SDS011;68821;59.134;37.894;2024-03-25T06:40:39;6.28;;;1.05;;
67516;SDS011;68821;59.134;37.894;2024-03-25T06:43:05;6.75;;;1.00;;
67516;SDS011;68821;59.134;37.894;2024-03-25T06:45:31;4.18;;;1.10;;
67516;SDS011;68821;59.134;37.894;2024-03-25T06:47:58;3.53;;;1.10;;
67516;SDS011;68821;59.134;37.894;2024-03-25T06:50:24;5.28;;;1.30;;
67516;SDS011;68821;59.134;37.894;2024-03-25T06:52:50;5.35;;;1.33;;
67516;SDS011;68821;59.134;37.894;2024-03-25T06:55:17;5.15;;;1.10;;
67516;SDS011;68821;59.134;37.894;2024-03-25T06:57:48;5.68;;;0.80;;
67516;SDS011;68821;59.134;37.894;2024-03-25T07:00:15;1.63;;;0.88;;
67516;SDS011;68821;59.134;37.894;2024-03-25T07:02:41;13.65;;;1.20;;
67516;SDS011;68821;59.134;37.894;2024-03-25T07:05:07;5.57;;;1.40;;
67516;SDS011;68821;59.134;37.894;2024-03-25T07:07:34;6.78;;;1.25;;
67516;SDS011;68821;59.134;37.894;2024-03-25T07:10:01;2.70;;;0.88;;
67516;SDS011;68821;59.134;37.894;2024-03-25T07:12:27;7.63;;;1.75;;
67516;SDS011;68821;59.134;37.894;2024-03-25T07:14:54;2.35;;;0.88;;
67516;SDS011;68821;59.134;37.894;2024-03-25T07:17:20;4.75;;;1.08;;
67516;SDS011;68821;59.134;37.894;2024-03-25T07:19:49;2.55;;;1.00;;
67516;SDS011;68821;59.134;37.894;2024-03-25T07:22:15;5.50;;;1.60;;
67516;SDS011;68821;59.134;37.894;2024-03-25T07:24:42;9.25;;;1.38;;
67516;SDS011;68821;59.134;37.894;2024-03-25T07:27:08;6.50;;;1.42;;
67516;SDS011;68821;59.134;37.894;2024-03-25T07:29:35;6.47;;;1.52;;
67516;SDS011;68821;59.134;37.894;2024-03-25T07:32:03;12.95;;;1.38;;
67516;SDS011;68821;59.134;37.894;2024-03-25T07:34:30;9.57;;;1.65;;
67516;SDS011;68821;59.134;37.894;2024-03-25T07:36:56;9.32;;;1.52;;
67516;SDS011;68821;59.134;37.894;2024-03-25T07:39:22;10.50;;;1.70;;
67516;SDS011;68821;59.134;37.894;2024-03-25T07:41:53;10.93;;;2.03;;
67516;SDS011;68821;59.134;37.894;2024-03-25T07:44:19;12.30;;;1.88;;
67516;SDS011;68821;59.134;37.894;2024-03-25T07:46:45;6.18;;;1.13;;
67516;SDS011;68821;59.134;37.894;2024-03-25T07:49:11;17.77;;;2.67;;
67516;SDS011;68821;59.134;37.894;2024-03-25T07:51:38;11.70;;;1.73;;
67516;SDS011;68821;59.134;37.894;2024-03-25T07:54:05;7.00;;;1.30;;
67516;SDS011;68821;59.134;37.894;2024-03-25T07:56:31;13.05;;;2.30;;
67516;SDS011;68821;59.134;37.894;2024-03-25T07:59:03;18.88;;;2.05;;
67516;SDS011;68821;59.134;37.894;2024-03-25T08:01:29;6.28;;;2.20;;
67516;SDS011;68821;59.134;37.894;2024-03-25T08:03:56;14.85;;;1.83;;
67516;SDS011;68821;59.134;37.894;2024-03-25T08:06:22;10.68;;;1.42;;
67516;SDS011;68821;59.134;37.894;2024-03-25T08:08:49;11.25;;;2.22;;
67516;SDS011;68821;59.134;37.894;2024-03-25T08:11:15;8.95;;;1.13;;
67516;SDS011;68821;59.134;37.894;2024-03-25T08:13:41;5.07;;;1.20;;
67516;SDS011;68821;59.134;37.894;2024-03-25T08:16:08;6.35;;;1.40;;
67516;SDS011;68821;59.134;37.894;2024-03-25T08:18:34;10.35;;;1.25;;
67516;SDS011;68821;59.134;37.894;2024-03-25T08:21:00;6.85;;;1.45;;
67516;SDS011;68821;59.134;37.894;2024-03-25T08:23:27;9.25;;;1.30;;
67516;SDS011;68821;59.134;37.894;2024-03-25T08:25:54;8.25;;;1.55;;
67516;SDS011;68821;59.134;37.894;2024-03-25T08:28:20;12.20;;;1.85;;
67516;SDS011;68821;59.134;37.894;2024-03-25T08:30:46;8.35;;;1.13;;
67516;SDS011;68821;59.134;37.894;2024-03-25T08:33:12;8.50;;;1.02;;
67516;SDS011;68821;59.134;37.894;2024-03-25T08:35:38;4.55;;;1.80;;
67516;SDS011;68821;59.134;37.894;2024-03-25T08:38:04;9.48;;;1.55;;
67516;SDS011;68821;59.134;37.894;2024-03-25T08:40:31;11.20;;;1.50;;
67516;SDS011;68821;59.134;37.894;2024-03-25T08:42:57;9.50;;;1.92;;
67516;SDS011;68821;59.134;37.894;2024-03-25T08:45:23;14.15;;;1.95;;
67516;SDS011;68821;59.134;37.894;2024-03-25T08:47:49;14.15;;;1.60;;
67516;SDS011;68821;59.134;37.894;2024-03-25T08:50:16;7.10;;;1.38;;
67516;SDS011;68821;59.134;37.894;2024-03-25T08:52:43;9.38;;;1.73;;
67516;SDS011;68821;59.134;37.894;2024-03-25T08:55:09;8.05;;;1.55;;
67516;SDS011;68821;59.134;37.894;2024-03-25T08:57:35;6.95;;;1.42;;
67516;SDS011;68821;59.134;37.894;2024-03-25T09:00:02;7.85;;;1.35;;
67516;SDS011;68821;59.134;37.894;2024-03-25T09:04:55;6.20;;;1.70;;
67516;SDS011;68821;59.134;37.894;2024-03-25T09:07:22;7.63;;;1.15;;
67516;SDS011;68821;59.134;37.894;2024-03-25T09:09:48;3.60;;;1.08;;
67516;SDS011;68821;59.134;37.894;2024-03-25T09:12:32;5.57;;;1.25;;
67516;SDS011;68821;59.134;37.894;2024-03-25T09:14:58;6.65;;;1.92;;
67516;SDS011;68821;59.134;37.894;2024-03-25T09:17:25;10.63;;;2.22;;
67516;SDS011;68821;59.134;37.894;2024-03-25T09:19:51;15.65;;;2.35;;
67516;SDS011;68821;59.134;37.894;2024-03-25T09:22:17;10.02;;;1.83;;
67516;SDS011;68821;59.134;37.894;2024-03-25T09:24:43;3.50;;;1.48;;
67516;SDS011;68821;59.134;37.894;2024-03-25T09:27:11;6.38;;;1.40;;
67516;SDS011;68821;59.134;37.894;2024-03-25T09:29:37;6.65;;;1.75;;
67516;SDS011;68821;59.134;37.894;2024-03-25T09:32:03;10.80;;;2.10;;
67516;SDS011;68821;59.134;37.894;2024-03-25T09:34:30;13.50;;;2.35;;
67516;SDS011;68821;59.134;37.894;2024-03-25T09:36:56;9.18;;;1.67;;
67516;SDS011;68821;59.134;37.894;2024-03-25T09:39:23;8.98;;;2.20;;
67516;SDS011;68821;59.134;37.894;2024-03-25T09:41:49;5.90;;;1.50;;
67516;SDS011;68821;59.134;37.894;2024-03-25T09:44:24;5.05;;;1.50;;
67516;SDS011;68821;59.134;37.894;2024-03-25T09:46:51;12.07;;;2.22;;
67516;SDS011;68821;59.134;37.894;2024-03-25T09:49:17;13.65;;;2.22;;
67516;SDS011;68821;59.134;37.894;2024-03-25T09:51:45;16.60;;;2.38;;
67516;SDS011;68821;59.134;37.894;2024-03-25T09:54:16;7.05;;;1.77;;
67516;SDS011;68821;59.134;37.894;2024-03-25T09:56:43;15.30;;;2.08;;
67516;SDS011;68821;59.134;37.894;2024-03-25T09:59:09;5.47;;;1.50;;
67516;SDS011;68821;59.134;37.894;2024-03-25T10:01:36;3.60;;;1.52;;
67516;SDS011;68821;59.134;37.894;2024-03-25T10:04:02;6.65;;;1.38;;
67516;SDS011;68821;59.134;37.894;2024-03-25T10:06:28;8.10;;;1.33;;
67516;SDS011;68821;59.134;37.894;2024-03-25T10:08:54;9.38;;;2.50;;
67516;SDS011;68821;59.134;37.894;2024-03-25T10:11:23;2.75;;;1.05;;
67516;SDS011;68821;59.134;37.894;2024-03-25T10:13:49;8.55;;;1.35;;
67516;SDS011;68821;59.134;37.894;2024-03-25T10:16:15;5.45;;;1.88;;
67516;SDS011;68821;59.134;37.894;2024-03-25T10:18:42;9.23;;;2.05;;
67516;SDS011;68821;59.134;37.894;2024-03-25T10:21:09;5.20;;;1.40;;
67516;SDS011;68821;59.134;37.894;2024-03-25T10:23:36;4.55;;;1.13;;
67516;SDS011;68821;59.134;37.894;2024-03-25T10:26:07;5.10;;;1.20;;
67516;SDS011;68821;59.134;37.894;2024-03-25T10:28:34;6.40;;;1.40;;
67516;SDS011;68821;59.134;37.894;2024-03-25T10:31:04;8.55;;;2.45;;
67516;SDS011;68821;59.134;37.894;2024-03-25T10:33:35;9.70;;;1.83;;
67516;SDS011;68821;59.134;37.894;2024-03-25T10:36:01;6.13;;;1.58;;
67516;SDS011;68821;59.134;37.894;2024-03-25T10:38:29;11.98;;;2.50;;
67516;SDS011;68821;59.134;37.894;2024-03-25T10:40:56;5.72;;;1.92;;
67516;SDS011;68821;59.134;37.894;2024-03-25T10:45:55;15.40;;;2.90;;
67516;SDS011;68821;59.134;37.894;2024-03-25T10:48:28;17.45;;;3.03;;
67516;SDS011;68821;59.134;37.894;2024-03-25T10:50:57;15.77;;;3.22;;
67516;SDS011;68821;59.134;37.894;2024-03-25T10:53:25;10.95;;;1.83;;
67516;SDS011;68821;59.134;37.894;2024-03-25T10:55:55;9.82;;;1.70;;
67516;SDS011;68821;59.134;37.894;2024-03-25T10:58:25;10.82;;;1.95;;
67516;SDS011;68821;59.134;37.894;2024-03-25T11:00:52;11.27;;;2.10;;
67516;SDS011;68821;59.134;37.894;2024-03-25T11:03:22;15.75;;;2.75;;
67516;SDS011;68821;59.134;37.894;2024-03-25T11:05:50;14.95;;;2.85;;
67516;SDS011;68821;59.134;37.894;2024-03-25T11:08:16;4.75;;;1.42;;
67516;SDS011;68821;59.134;37.894;2024-03-25T11:10:44;14.93;;;2.42;;
67516;SDS011;68821;59.134;37.894;2024-03-25T11:13:18;8.98;;;1.40;;
67516;SDS011;68821;59.134;37.894;2024-03-25T11:15:46;3.35;;;1.08;;
67516;SDS011;68821;59.134;37.894;2024-03-25T11:18:14;9.43;;;1.70;;
67516;SDS011;68821;59.134;37.894;2024-03-25T11:20:41;12.10;;;2.28;;
67516;SDS011;68821;59.134;37.894;2024-03-25T11:23:12;9.38;;;1.98;;
67516;SDS011;68821;59.134;37.894;2024-03-25T11:25:40;16.50;;;3.03;;
67516;SDS011;68821;59.134;37.894;2024-03-25T11:28:11;11.38;;;2.10;;
67516;SDS011;68821;59.134;37.894;2024-03-25T11:30:37;8.95;;;1.80;;
67516;SDS011;68821;59.134;37.894;2024-03-25T11:33:07;8.82;;;2.38;;
67516;SDS011;68821;59.134;37.894;2024-03-25T11:35:37;12.13;;;2.55;;
67516;SDS011;68821;59.134;37.894;2024-03-25T11:38:03;9.93;;;1.77;;
67516;SDS011;68821;59.134;37.894;2024-03-25T11:40:30;19.58;;;2.28;;
67516;SDS011;68821;59.134;37.894;2024-03-25T11:42:56;4.28;;;1.20;;
67516;SDS011;68821;59.134;37.894;2024-03-25T11:45:24;8.27;;;2.00;;
67516;SDS011;68821;59.134;37.894;2024-03-25T11:47:50;8.98;;;1.85;;
67516;SDS011;68821;59.134;37.894;2024-03-25T11:50:17;10.65;;;2.42;;
67516;SDS011;68821;59.134;37.894;2024-03-25T11:52:45;12.90;;;2.03;;
67516;SDS011;68821;59.134;37.894;2024-03-25T11:55:16;13.43;;;2.97;;
67516;SDS011;68821;59.134;37.894;2024-03-25T11:57:43;16.15;;;2.83;;
67516;SDS011;68821;59.134;37.894;2024-03-25T12:00:09;14.65;;;2.60;;
67516;SDS011;68821;59.134;37.894;2024-03-25T12:02:43;12.13;;;3.08;;
67516;SDS011;68821;59.134;37.894;2024-03-25T12:05:11;13.90;;;2.10;;
67516;SDS011;68821;59.134;37.894;2024-03-25T12:07:37;13.50;;;3.28;;
67516;SDS011;68821;59.134;37.894;2024-03-25T12:10:04;21.60;;;3.00;;
67516;SDS011;68821;59.134;37.894;2024-03-25T12:12:49;13.35;;;1.88;;
67516;SDS011;68821;59.134;37.894;2024-03-25T12:17:42;14.48;;;2.40;;
67516;SDS011;68821;59.134;37.894;2024-03-25T12:20:09;13.63;;;2.00;;
67516;SDS011;68821;59.134;37.894;2024-03-25T12:22:38;10.38;;;2.35;;
67516;SDS011;68821;59.134;37.894;2024-03-25T12:25:06;15.57;;;2.75;;
67516;SDS011;68821;59.134;37.894;2024-03-25T12:27:33;17.90;;;2.78;;
67516;SDS011;68821;59.134;37.894;2024-03-25T12:30:09;10.85;;;2.50;;
67516;SDS011;68821;59.134;37.894;2024-03-25T12:32:43;7.85;;;1.92;;
67516;SDS011;68821;59.134;37.894;2024-03-25T12:37:37;12.68;;;2.10;;
67516;SDS011;68821;59.134;37.894;2024-03-25T12:40:04;11.55;;;1.90;;
67516;SDS011;68821;59.134;37.894;2024-03-25T12:42:32;11.20;;;2.35;;
67516;SDS011;68821;59.134;37.894;2024-03-25T12:44:58;15.27;;;2.83;;
67516;SDS011;68821;59.134;37.894;2024-03-25T12:47:24;13.25;;;2.28;;
67516;SDS011;68821;59.134;37.894;2024-03-25T12:49:50;10.95;;;3.78;;
67516;SDS011;68821;59.134;37.894;2024-03-25T12:52:16;13.63;;;3.85;;
67516;SDS011;68821;59.134;37.894;2024-03-25T12:54:42;7.07;;;2.03;;
67516;SDS011;68821;59.134;37.894;2024-03-25T12:57:09;6.53;;;2.58;;
67516;SDS011;68821;59.134;37.894;2024-03-25T12:59:36;6.25;;;1.83;;
67516;SDS011;68821;59.134;37.894;2024-03-25T13:02:02;5.72;;;1.67;;
67516;SDS011;68821;59.134;37.894;2024-03-25T13:04:28;5.85;;;1.65;;
67516;SDS011;68821;59.134;37.894;2024-03-25T13:06:54;11.45;;;2.42;;
67516;SDS011;68821;59.134;37.894;2024-03-25T13:09:21;6.05;;;2.35;;
67516;SDS011;68821;59.134;37.894;2024-03-25T13:11:47;10.63;;;2.45;;
67516;SDS011;68821;59.134;37.894;2024-03-25T13:14:13;12.30;;;2.78;;
67516;SDS011;68821;59.134;37.894;2024-03-25T13:16:41;7.18;;;2.28;;
67516;SDS011;68821;59.134;37.894;2024-03-25T13:19:07;7.45;;;1.95;;
67516;SDS011;68821;59.134;37.894;2024-03-25T13:21:33;6.35;;;1.77;;
67516;SDS011;68821;59.134;37.894;2024-03-25T13:23:59;7.03;;;1.58;;
67516;SDS011;68821;59.134;37.894;2024-03-25T13:26:26;6.47;;;1.90;;
67516;SDS011;68821;59.134;37.894;2024-03-25T13:28:53;8.48;;;2.13;;
67516;SDS011;68821;59.134;37.894;2024-03-25T13:31:19;6.05;;;2.00;;
67516;SDS011;68821;59.134;37.894;2024-03-25T13:33:45;6.03;;;1.90;;
67516;SDS011;68821;59.134;37.894;2024-03-25T13:36:11;4.28;;;1.77;;
67516;SDS011;68821;59.134;37.894;2024-03-25T13:38:37;4.97;;;2.40;;
67516;SDS011;68821;59.134;37.894;2024-03-25T13:41:04;5.18;;;1.67;;
67516;SDS011;68821;59.134;37.894;2024-03-25T13:43:31;5.60;;;1.60;;
67516;SDS011;68821;59.134;37.894;2024-03-25T13:45:57;5.38;;;1.80;;
67516;SDS011;68821;59.134;37.894;2024-03-25T13:48:23;6.72;;;1.90;;
67516;SDS011;68821;59.134;37.894;2024-03-25T13:50:49;6.20;;;1.90;;
67516;SDS011;68821;59.134;37.894;2024-03-25T13:53:19;3.75;;;1.58;;
67516;SDS011;68821;59.134;37.894;2024-03-25T13:55:45;5.93;;;1.60;;
67516;SDS011;68821;59.134;37.894;2024-03-25T13:58:11;5.95;;;1.80;;
67516;SDS011;68821;59.134;37.894;2024-03-25T14:00:37;4.80;;;1.45;;
67516;SDS011;68821;59.134;37.894;2024-03-25T14:03:03;7.30;;;1.80;;
67516;SDS011;68821;59.134;37.894;2024-03-25T14:05:30;5.63;;;1.90;;
67516;SDS011;68821;59.134;37.894;2024-03-25T14:07:56;7.22;;;1.65;;
67516;SDS011;68821;59.134;37.894;2024-03-25T14:10:22;5.57;;;2.15;;
67516;SDS011;68821;59.134;37.894;2024-03-25T14:12:48;6.07;;;1.90;;
67516;SDS011;68821;59.134;37.894;2024-03-25T14:15:14;5.38;;;2.25;;
67516;SDS011;68821;59.134;37.894;2024-03-25T14:17:40;5.25;;;2.05;;
67516;SDS011;68821;59.134;37.894;2024-03-25T14:20:07;7.35;;;1.88;;
67516;SDS011;68821;59.134;37.894;2024-03-25T14:25:00;5.00;;;1.73;;
67516;SDS011;68821;59.134;37.894;2024-03-25T14:27:26;9.63;;;2.92;;
67516;SDS011;68821;59.134;37.894;2024-03-25T14:29:52;8.05;;;2.40;;
67516;SDS011;68821;59.134;37.894;2024-03-25T14:32:18;5.45;;;2.30;;
67516;SDS011;68821;59.134;37.894;2024-03-25T14:34:45;7.18;;;2.08;;
67516;SDS011;68821;59.134;37.894;2024-03-25T14:37:12;5.75;;;1.88;;
67516;SDS011;68821;59.134;37.894;2024-03-25T14:39:38;8.18;;;2.30;;
67516;SDS011;68821;59.134;37.894;2024-03-25T14:42:05;7.50;;;2.35;;
67516;SDS011;68821;59.134;37.894;2024-03-25T14:44:33;8.77;;;2.50;;